Time;durP1;ratioP1;P1;durP2;ratioP2;P2;SDS_P1;SDS_P2;PMS_P1;PMS_P2;Temp;Humidity;BMP_temperature;BMP_pressure;BME280_temperature;BME280_humidity;BME280_pressure;Samples;Min_cycle;Max_cycle;Signal;HPM_P1;HPM_P2
2023/05/12 00:02:45;;;;;;;7.20;3.20;;;;;;;11.01;46.02;100254.63;220667;1255;138926;-67
2023/05/12 00:07:48;;;;;;;3.60;3.00;;;;;;;10.94;46.09;100256.83;220006;1256;140004;-67
2023/05/12 00:12:54;;;;;;;4.80;4.20;;;;;;;10.86;46.25;100252.98;218932;1257;138960;-66
2023/05/12 00:17:57;;;;;;;9.90;4.40;;;;;;;10.77;46.42;100249.35;219502;1256;139869;-67
2023/05/12 00:23:01;;;;;;;7.10;3.60;;;;;;;10.73;46.81;100249.65;218419;1257;139845;-66
2023/05/12 00:28:04;;;;;;;4.30;3.50;;;;;;;10.65;47.02;100252.38;217980;1259;139149;-66
2023/05/12 00:33:09;;;;;;;10.50;3.00;;;;;;;10.57;47.20;100251.80;218283;1257;139223;-68
2023/05/12 00:38:13;;;;;;;6.80;2.90;;;;;;;10.50;47.28;100250.15;218104;1257;140384;-69
2023/05/12 00:43:16;;;;;;;6.70;3.40;;;;;;;10.43;47.51;100251.77;217803;1256;836933;-68
2023/05/12 00:48:20;;;;;;;8.00;3.80;;;;;;;10.36;47.61;100254.37;218069;1257;139572;-66
2023/05/12 00:53:23;;;;;;;6.60;4.20;;;;;;;10.33;47.76;100254.52;218551;1257;140802;-66
2023/05/12 00:58:26;;;;;;;5.60;2.80;;;;;;;10.28;47.95;100256.65;218106;1255;141384;-65
2023/05/12 01:03:30;;;;;;;8.40;3.60;;;;;;;10.19;48.14;100253.32;218555;1257;139079;-64
2023/05/12 01:08:34;;;;;;;4.20;3.60;;;;;;;10.11;48.25;100257.80;218203;1259;139425;-65
2023/05/12 01:13:39;;;;;;;4.20;2.50;;;;;;;10.06;48.57;100260.00;218521;1259;141375;-65
2023/05/12 01:18:48;;;;;;;4.60;3.40;;;;;;;10.00;48.66;100264.02;218084;1259;139145;-65
2023/05/12 01:23:57;;;;;;;5.90;3.40;;;;;;;9.92;48.95;100265.97;217857;1257;139266;-65
2023/05/12 01:29:02;;;;;;;6.40;3.70;;;;;;;9.81;49.22;100263.02;218550;1255;140029;-66
2023/05/12 01:34:05;;;;;;;4.20;3.80;;;;;;;9.72;49.49;100265.23;218485;1257;139313;-67
2023/05/12 01:39:08;;;;;;;3.90;3.50;;;;;;;9.66;49.65;100269.61;219694;1255;140054;-66
2023/05/12 01:44:13;;;;;;;5.70;3.80;;;;;;;9.63;49.76;100273.55;219139;1256;139085;-67
2023/05/12 01:49:16;;;;;;;6.00;4.20;;;;;;;9.59;49.99;100278.20;219095;1256;139730;-69
2023/05/12 01:54:21;;;;;;;5.90;4.00;;;;;;;9.53;50.12;100277.37;220236;1256;140225;-69
2023/05/12 01:59:24;;;;;;;10.10;4.10;;;;;;;9.47;50.42;100280.21;218511;1255;139501;-66
2023/05/12 02:04:27;;;;;;;3.90;3.40;;;;;;;9.39;50.70;100282.11;217690;1259;139042;-66
2023/05/12 02:09:29;;;;;;;7.60;3.80;;;;;;;9.26;51.06;100284.04;219693;1257;152649;-66
2023/05/12 02:14:32;;;;;;;7.00;3.90;;;;;;;9.18;51.10;100288.51;218841;1257;139121;-67
2023/05/12 02:19:35;;;;;;;5.00;3.10;;;;;;;9.13;51.41;100292.47;218995;1256;139101;-68
2023/05/12 02:24:38;;;;;;;4.80;4.00;;;;;;;9.08;51.62;100290.86;218150;1256;138612;-67
2023/05/12 02:29:41;;;;;;;4.40;3.80;;;;;;;9.03;51.98;100292.50;218377;1257;139201;-67
2023/05/12 02:34:44;;;;;;;5.30;4.90;;;;;;;8.97;52.15;100295.10;218035;1256;139067;-68
2023/05/12 02:39:48;;;;;;;4.10;3.50;;;;;;;8.89;52.69;100297.86;218131;1259;138617;-67
2023/05/12 02:44:51;;;;;;;7.50;4.60;;;;;;;8.76;53.04;100295.55;218206;1257;139034;-68
2023/05/12 02:49:55;;;;;;;7.00;4.50;;;;;;;8.64;53.45;100293.98;218833;1257;139468;-67
2023/05/12 02:54:59;;;;;;;7.60;4.80;;;;;;;8.56;53.57;100299.27;217924;1259;140104;-67
2023/05/12 03:00:04;;;;;;;9.50;4.60;;;;;;;8.50;53.76;100301.26;217893;1259;138965;-67
2023/05/12 03:05:08;;;;;;;10.70;5.00;;;;;;;8.44;54.01;100301.59;218104;1257;139069;-67
2023/05/12 03:10:11;;;;;;;4.50;4.10;;;;;;;8.39;54.39;100301.96;218846;1256;138666;-68
2023/05/12 03:15:13;;;;;;;5.30;4.70;;;;;;;8.38;54.32;100303.43;218337;1256;139776;-67
2023/05/12 03:20:16;;;;;;;7.00;6.10;;;;;;;8.37;54.72;100301.71;219637;1256;140243;-68
2023/05/12 03:25:19;;;;;;;9.10;4.80;;;;;;;8.40;55.37;100298.20;218196;1257;139955;-67
2023/05/12 03:30:22;;;;;;;8.60;4.00;;;;;;;8.49;55.67;100303.75;219772;1254;139286;-68
2023/05/12 03:35:24;;;;;;;6.60;5.10;;;;;;;8.53;56.32;100301.46;219606;1255;139838;-69
2023/05/12 03:40:27;;;;;;;5.60;4.30;;;;;;;8.56;56.41;100304.16;220657;1256;140080;-67
2023/05/12 03:45:31;;;;;;;10.30;4.70;;;;;;;8.93;55.93;100307.75;220659;1257;138957;-66
2023/05/12 03:50:33;;;;;;;5.20;4.70;;;;;;;9.64;55.86;100307.06;220561;1256;139535;-67
2023/05/12 03:55:36;;;;;;;7.10;4.90;;;;;;;9.90;55.46;100304.11;220628;1256;139327;-67
2023/05/12 04:00:39;;;;;;;5.10;4.20;;;;;;;9.88;55.35;100313.84;220397;1256;139838;-68
2023/05/12 04:05:43;;;;;;;4.80;4.10;;;;;;;9.99;55.53;100316.34;218743;1256;138885;-65
2023/05/12 04:10:46;;;;;;;6.30;5.10;;;;;;;10.36;55.31;100321.09;217980;1257;139646;-66
2023/05/12 04:15:50;;;;;;;5.40;4.10;;;;;;;11.42;54.74;100321.54;218771;1256;140272;-66
2023/05/12 04:20:54;;;;;;;8.40;4.80;;;;;;;12.34;53.88;100322.19;218225;1257;138956;-67
2023/05/12 04:25:57;;;;;;;5.20;4.60;;;;;;;13.06;52.76;100328.02;218051;1258;139562;-67
2023/05/12 04:31:03;;;;;;;5.00;3.40;;;;;;;13.77;51.64;100328.21;217731;1257;140189;-68
2023/05/12 04:36:06;;;;;;;8.50;3.70;;;;;;;13.88;50.76;100331.30;219049;1257;139669;-68
2023/05/12 04:41:08;;;;;;;6.60;4.00;;;;;;;13.77;50.37;100334.07;218567;1254;139412;-66
2023/05/12 04:46:11;;;;;;;6.00;4.20;;;;;;;14.04;49.46;100334.15;217903;1257;139606;-67
2023/05/12 04:51:14;;;;;;;4.90;4.40;;;;;;;14.34;49.12;100336.67;218808;1257;139812;-67
2023/05/12 04:56:17;;;;;;;5.00;3.90;;;;;;;14.24;48.72;100338.28;217867;1257;138978;-67
2023/05/12 05:01:19;;;;;;;8.20;4.30;;;;;;;14.05;48.52;100338.50;219259;1254;139682;-68
2023/05/12 05:06:22;;;;;;;4.80;3.80;;;;;;;13.85;48.23;100336.33;218126;1255;139106;-68
2023/05/12 05:11:25;;;;;;;8.10;3.70;;;;;;;13.83;48.43;100344.83;218149;1259;139033;-70
2023/05/12 05:16:29;;;;;;;26.70;5.70;;;;;;;15.21;47.20;100343.04;218414;1257;140157;-72
2023/05/12 05:21:33;;;;;;;5.30;4.10;;;;;;;19.60;43.84;100342.48;218695;1257;139255;-69
2023/05/12 05:26:38;;;;;;;8.20;4.40;;;;;;;23.52;39.94;100340.59;218789;1259;139412;-68
2023/05/12 05:31:40;;;;;;;8.60;3.80;;;;;;;26.19;36.69;100343.84;219154;1256;139199;-67
2023/05/12 05:36:44;;;;;;;4.00;3.30;;;;;;;28.79;34.41;100345.78;220536;1256;139482;-69
2023/05/12 05:41:48;;;;;;;4.80;3.60;;;;;;;30.85;31.73;100346.02;220652;1255;139532;-69
2023/05/12 05:46:51;;;;;;;7.00;3.60;;;;;;;31.22;29.33;100346.10;219687;1256;140414;-68
2023/05/12 05:51:55;;;;;;;8.20;2.60;;;;;;;31.36;27.98;100350.27;220520;1255;140152;-69
2023/05/12 05:57:00;;;;;;;5.30;2.40;;;;;;;31.95;26.76;100355.23;219716;1256;140058;-68
2023/05/12 06:02:05;;;;;;;4.40;2.60;;;;;;;29.84;26.23;100361.41;218798;1256;139336;-66
2023/05/12 06:07:08;;;;;;;3.10;2.70;;;;;;;26.85;27.39;100359.39;218172;1257;139264;-66
2023/05/12 06:12:11;;;;;;;9.00;3.50;;;;;;;25.77;28.84;100359.58;219645;1257;140332;-66
2023/05/12 06:17:14;;;;;;;4.30;3.30;;;;;;;24.67;29.22;100358.84;219646;1257;139474;-66
2023/05/12 06:22:17;;;;;;;11.20;3.70;;;;;;;23.88;29.80;100364.66;218572;1257;140414;-66
2023/05/12 06:27:20;;;;;;;8.00;4.00;;;;;;;23.23;30.76;100364.75;218891;1257;140283;-67
2023/05/12 06:32:24;;;;;;;10.70;3.90;;;;;;;22.23;31.22;100363.30;218549;1257;138845;-65
2023/05/12 06:37:27;;;;;;;6.10;3.70;;;;;;;21.41;32.26;100367.25;217958;1257;139488;-65
2023/05/12 06:42:30;;;;;;;7.20;3.70;;;;;;;21.10;32.70;100370.81;217882;1257;141506;-65
2023/05/12 06:47:33;;;;;;;8.50;3.90;;;;;;;21.35;33.19;100373.35;218083;1257;139027;-65
2023/05/12 06:52:37;;;;;;;3.30;3.00;;;;;;;22.14;32.79;100371.16;217761;1257;139117;-65
2023/05/12 06:57:40;;;;;;;8.10;4.40;;;;;;;22.76;32.11;100374.89;217892;1257;139163;-65
2023/05/12 07:02:43;;;;;;;10.70;4.10;;;;;;;24.12;31.39;100372.63;218079;1259;139312;-66
2023/05/12 07:07:47;;;;;;;3.80;3.00;;;;;;;25.53;30.74;100370.35;219034;1258;139758;-66
2023/05/12 07:12:50;;;;;;;5.40;3.00;;;;;;;26.21;30.11;100363.70;218765;1256;141116;-65
2023/05/12 07:17:54;;;;;;;4.80;3.30;;;;;;;26.51;29.69;100361.90;217839;1259;139364;-66
2023/05/12 07:22:58;;;;;;;9.80;3.80;;;;;;;26.24;29.19;100357.04;218298;1259;140318;-66
2023/05/12 07:28:00;;;;;;;8.60;3.50;;;;;;;26.11;29.51;100357.92;217929;1257;139714;-65
2023/05/12 07:33:04;;;;;;;5.20;3.00;;;;;;;25.79;29.48;100362.11;217862;1259;139355;-66
2023/05/12 07:38:08;;;;;;;2.80;2.50;;;;;;;25.47;29.31;100360.80;220454;1257;138795;-66
2023/05/12 07:43:11;;;;;;;6.50;3.80;;;;;;;25.05;29.11;100359.39;220502;1258;139009;-67
2023/05/12 07:48:14;;;;;;;36.10;6.20;;;;;;;24.53;29.45;100359.82;220442;1257;140122;-66
2023/05/12 07:53:17;;;;;;;11.00;3.30;;;;;;;24.26;29.35;100357.79;220368;1258;139404;-66
2023/05/12 07:58:21;;;;;;;21.60;4.50;;;;;;;23.96;29.27;100359.16;218242;1257;139569;-67
2023/05/12 08:03:24;;;;;;;9.40;3.20;;;;;;;23.74;29.53;100360.63;218898;1257;139665;-64
2023/05/12 08:08:28;;;;;;;6.60;2.60;;;;;;;23.45;29.98;100349.25;217964;1259;139421;-64
2023/05/12 08:13:31;;;;;;;6.70;3.80;;;;;;;23.26;30.29;100353.27;219282;1257;141954;-66
2023/05/12 08:18:34;;;;;;;5.60;2.80;;;;;;;23.06;30.57;100358.59;218035;1257;139731;-65
2023/05/12 08:23:37;;;;;;;5.70;3.00;;;;;;;22.90;30.55;100358.68;217960;1257;139455;-66
2023/05/12 08:28:40;;;;;;;7.10;3.10;;;;;;;22.85;30.38;100357.80;218608;1257;139079;-66
2023/05/12 08:33:45;;;;;;;11.80;4.30;;;;;;;22.80;30.41;100350.05;217892;1256;139297;-66
2023/05/12 08:38:57;;;;;;;16.60;3.50;;;;;;;22.59;30.83;100350.52;219029;1257;141082;-66
2023/05/12 08:44:01;;;;;;;4.80;2.50;;;;;;;22.33;30.76;100352.13;217794;1258;140514;-66
2023/05/12 08:49:05;;;;;;;3.20;2.20;;;;;;;22.14;31.09;100355.77;218332;1259;139832;-66
2023/05/12 08:54:11;;;;;;;4.00;2.80;;;;;;;22.25;31.25;100361.61;217908;1259;139505;-66
2023/05/12 08:59:14;;;;;;;;;;;;;;;22.10;31.46;100353.27;218418;1259;139820;-66
2023/05/12 09:04:19;;;;;;;10.00;3.50;;;;;;;22.20;31.47;100359.58;218490;1257;125822;-66
2023/05/12 09:09:24;;;;;;;2.50;2.30;;;;;;;21.88;31.59;100360.52;217821;1259;141084;-66
2023/05/12 09:14:30;;;;;;;2.30;2.10;;;;;;;21.70;31.18;100355.05;218351;1259;140032;-66
2023/05/12 09:19:34;;;;;;;;;;;;;;;21.61;31.42;100359.94;218773;1257;139924;-67
2023/05/12 09:24:38;;;;;;;6.10;2.70;;;;;;;21.75;31.20;100359.85;218609;1259;126317;-66
2023/05/12 09:29:48;;;;;;;10.20;3.00;;;;;;;21.99;31.17;100349.19;217927;1259;139194;-66
2023/05/12 09:35:05;;;;;;;5.50;1.70;;;;;;;22.15;30.88;100353.95;220638;1257;139880;-67
2023/05/12 09:40:10;;;;;;;4.00;2.40;;;;;;;21.97;30.83;100348.95;220349;1259;139829;-67
2023/05/12 09:45:13;;;;;;;8.00;2.00;;;;;;;22.00;30.88;100347.17;219327;1257;139613;-67
2023/05/12 09:50:17;;;;;;;4.50;3.40;;;;;;;22.15;31.26;100343.70;220744;1257;139748;-67
2023/05/12 09:55:22;;;;;;;5.80;2.80;;;;;;;22.04;31.28;100351.13;219203;1256;139398;-67
2023/05/12 10:00:25;;;;;;;8.30;2.90;;;;;;;22.06;31.72;100348.00;219794;1257;139564;-67
2023/05/12 10:05:53;;;;;;;7.20;3.00;;;;;;;22.32;31.06;100349.59;217882;1257;139251;-67
2023/05/12 10:11:01;;;;;;;7.40;2.30;;;;;;;22.38;31.33;100347.90;218646;1258;139873;-69
2023/05/12 10:16:09;;;;;;;3.90;2.50;;;;;;;22.03;31.11;100340.17;218065;1259;139513;-66
2023/05/12 10:21:14;;;;;;;6.60;2.50;;;;;;;21.85;31.29;100351.13;218526;1259;139266;-67
2023/05/12 10:26:18;;;;;;;4.90;2.30;;;;;;;21.96;31.72;100346.80;218156;1260;139247;-67
2023/05/12 10:31:22;;;;;;;4.70;2.50;;;;;;;21.96;31.66;100337.45;218504;1257;140060;-66
2023/05/12 10:36:25;;;;;;;7.40;3.20;;;;;;;21.88;31.77;100332.73;218901;1260;139631;-67
2023/05/12 10:41:33;;;;;;;10.70;2.50;;;;;;;21.83;31.93;100339.05;218078;1257;141008;-67
2023/05/12 10:46:38;;;;;;;66.20;16.90;;;;;;;22.10;32.06;100346.48;218853;1257;140442;-66
2023/05/12 10:51:47;;;;;;;2.70;2.40;;;;;;;22.05;31.60;100345.84;217923;1258;139455;-66
2023/05/12 10:56:52;;;;;;;3.60;2.50;;;;;;;22.16;31.94;100343.77;218353;1258;139586;-67
2023/05/12 11:02:11;;;;;;;10.30;3.30;;;;;;;22.31;31.54;100337.73;217877;1259;140311;-66
2023/05/12 11:07:25;;;;;;;5.00;3.40;;;;;;;22.65;31.65;100339.77;217880;1257;159239;-66
2023/05/12 11:12:31;;;;;;;3.50;2.80;;;;;;;22.80;31.05;100339.52;218279;1256;139468;-66
2023/05/12 11:17:40;;;;;;;2.10;1.80;;;;;;;23.07;30.99;100330.83;217937;1257;140214;-66
2023/05/12 11:22:43;;;;;;;16.70;5.10;;;;;;;23.15;30.57;100330.22;219764;1257;140207;-67
2023/05/12 11:27:50;;;;;;;5.50;2.50;;;;;;;23.12;30.74;100334.52;217987;1257;142164;-65
2023/05/12 11:33:01;;;;;;;4.80;2.50;;;;;;;22.78;30.43;100340.96;219849;1258;139811;-67
2023/05/12 11:38:15;;;;;;;2.80;2.60;;;;;;;22.78;30.49;100340.20;220459;1257;141223;-67
2023/05/12 11:43:21;;;;;;;4.70;2.40;;;;;;;22.81;29.98;100337.27;219039;1257;140941;-67
2023/05/12 11:48:34;;;;;;;2.80;2.00;;;;;;;22.86;30.28;100340.87;217649;1258;139320;-67
2023/05/12 11:53:40;;;;;;;5.40;2.50;;;;;;;23.03;29.78;100347.09;218787;1257;139913;-67
2023/05/12 11:58:55;;;;;;;3.40;2.30;;;;;;;22.44;29.50;100341.99;218005;1260;140341;-66
2023/05/12 12:03:57;;;;;;;14.90;3.10;;;;;;;22.30;30.56;100341.32;219558;1257;139183;-67
2023/05/12 12:09:01;;;;;;;2.30;2.10;;;;;;;22.70;30.19;100339.50;219534;1257;141591;-66
2023/05/12 12:14:03;;;;;;;2.80;2.40;;;;;;;22.80;30.17;100341.90;218416;1255;139385;-66
2023/05/12 12:19:06;;;;;;;4.00;2.20;;;;;;;22.65;29.56;100345.59;219047;1255;139447;-69
2023/05/12 12:24:09;;;;;;;2.80;2.50;;;;;;;22.31;29.85;100345.88;218830;1257;139474;-66
2023/05/12 12:29:12;;;;;;;9.70;2.40;;;;;;;22.33;29.77;100348.70;219578;1257;139898;-66
2023/05/12 12:34:14;;;;;;;4.20;2.30;;;;;;;22.35;29.31;100345.20;218126;1258;139493;-64
2023/05/12 12:39:21;;;;;;;5.20;2.30;;;;;;;22.57;29.17;100342.54;218153;1258;139869;-69
2023/05/12 12:44:25;;;;;;;3.20;2.60;;;;;;;22.60;29.20;100338.52;217541;1257;491794;-66
2023/05/12 12:49:29;;;;;;;4.30;2.50;;;;;;;22.67;28.73;100335.64;219271;1257;139430;-70
2023/05/12 12:54:33;;;;;;;42.90;5.10;;;;;;;22.75;28.52;100330.45;218095;1257;139938;-66
2023/05/12 12:59:36;;;;;;;4.20;2.40;;;;;;;22.77;28.56;100331.00;219999;1257;139800;-68
2023/05/12 13:04:38;;;;;;;24.20;4.40;;;;;;;22.92;28.82;100325.41;217778;1257;139638;-69
2023/05/12 13:09:40;;;;;;;4.10;2.30;;;;;;;22.91;28.46;100334.81;218139;1256;141262;-68
2023/05/12 13:14:44;;;;;;;5.00;2.90;;;;;;;22.67;28.84;100330.54;220593;1256;139796;-69
2023/05/12 13:19:48;;;;;;;35.60;5.40;;;;;;;22.57;28.44;100324.16;218792;1257;140221;-68
2023/05/12 13:24:51;;;;;;;5.90;2.10;;;;;;;22.66;28.57;100323.98;219725;1257;139677;-69
2023/05/12 13:29:54;;;;;;;4.10;2.50;;;;;;;22.71;28.71;100329.38;219670;1257;140349;-69
2023/05/12 13:34:58;;;;;;;5.40;2.70;;;;;;;22.65;28.29;100321.34;220195;1256;140253;-66
2023/05/12 13:40:01;;;;;;;5.00;2.60;;;;;;;22.42;27.96;100323.28;220543;1257;139732;-68
2023/05/12 13:45:05;;;;;;;7.50;3.00;;;;;;;21.89;28.17;100324.25;219622;1256;139524;-67
2023/05/12 13:50:08;;;;;;;5.60;2.80;;;;;;;21.56;28.47;100326.48;220494;1258;140613;-67
2023/05/12 13:55:10;;;;;;;6.90;2.40;;;;;;;21.30;28.56;100330.75;219998;1256;139703;-67
2023/05/12 14:00:25;;;;;;;3.60;2.60;;;;;;;21.22;29.06;100332.36;218892;1255;139351;-67
2023/05/12 14:05:29;;;;;;;8.90;3.10;;;;;;;21.09;28.98;100330.66;217664;1256;139270;-68
2023/05/12 14:10:34;;;;;;;5.40;2.70;;;;;;;20.78;29.12;100320.34;219305;1256;141842;-67
2023/05/12 14:15:37;;;;;;;2.90;2.20;;;;;;;20.99;29.18;100320.10;218933;1256;139803;-67
2023/05/12 14:20:52;;;;;;;7.00;2.80;;;;;;;20.82;28.91;100323.60;219149;1256;139015;-66
2023/05/12 14:25:56;;;;;;;2.00;1.70;;;;;;;20.52;28.84;100324.09;218124;1255;140353;-70
2023/05/12 14:31:02;;;;;;;3.40;2.20;;;;;;;20.43;29.08;100328.79;217927;1259;139543;-66
2023/05/12 14:36:08;;;;;;;24.50;4.10;;;;;;;20.66;29.05;100325.89;217750;1259;142689;-68
2023/05/12 14:41:13;;;;;;;2.50;2.20;;;;;;;20.86;29.11;100332.82;218771;1257;139400;-67
2023/05/12 14:46:18;;;;;;;5.90;2.70;;;;;;;20.86;28.89;100330.98;217588;1259;139807;-67
2023/05/12 14:51:25;;;;;;;;;;;;;;;20.69;28.67;100326.73;217649;1259;139804;-66
2023/05/12 14:56:32;;;;;;;8.10;2.30;;;;;;;20.58;28.96;100319.31;218730;1256;125578;-67
2023/05/12 15:01:38;;;;;;;5.00;2.20;;;;;;;20.79;29.06;100326.72;217718;1257;139829;-66
2023/05/12 15:06:44;;;;;;;7.10;2.60;;;;;;;20.77;28.79;100325.88;219003;1259;140402;-65
2023/05/12 15:11:50;;;;;;;5.50;2.40;;;;;;;20.48;29.00;100327.05;220449;1256;140321;-67
2023/05/12 15:16:58;;;;;;;2.50;2.30;;;;;;;20.10;29.04;100323.94;217850;1257;220953;-67
2023/05/12 15:22:02;;;;;;;2.20;2.10;;;;;;;19.84;29.53;100329.66;218905;1256;139698;-67
2023/05/12 15:27:08;;;;;;;2.80;2.60;;;;;;;19.89;29.53;100320.27;220458;1256;141294;-68
2023/05/12 15:32:13;;;;;;;3.80;2.50;;;;;;;20.10;29.58;100323.41;220534;1256;140461;-68
2023/05/12 15:37:18;;;;;;;2.60;2.40;;;;;;;20.11;29.47;100324.80;220506;1256;141011;-67
2023/05/12 15:42:23;;;;;;;3.00;2.30;;;;;;;20.02;29.52;100325.25;220258;1255;139316;-67
2023/05/12 15:47:37;;;;;;;5.90;3.00;;;;;;;20.03;29.57;100325.79;220193;1255;140321;-66
2023/05/12 15:52:46;;;;;;;4.90;2.60;;;;;;;19.99;29.36;100323.70;220500;1255;139474;-68
2023/05/12 15:57:54;;;;;;;2.90;1.90;;;;;;;19.94;29.49;100329.25;220607;1256;139967;-68
2023/05/12 16:03:02;;;;;;;3.30;2.50;;;;;;;19.81;29.30;100328.72;219624;1255;139622;-70
2023/05/12 16:08:08;;;;;;;4.30;2.00;;;;;;;19.73;29.29;100317.57;219590;1256;139483;-73
2023/05/12 16:13:15;;;;;;;;;;;;;;;19.68;29.53;100319.01;219633;1255;140201;-70
2023/05/12 16:18:31;;;;;;;8.20;2.70;;;;;;;19.62;29.54;100319.30;218005;1257;125430;-66
2023/05/12 16:23:41;;;;;;;5.10;2.80;;;;;;;19.64;29.54;100315.24;217812;1257;139901;-70
2023/05/12 16:28:47;;;;;;;5.80;2.80;;;;;;;19.62;29.53;100319.20;218456;1257;139307;-68
2023/05/12 16:33:53;;;;;;;2.60;2.20;;;;;;;19.58;29.60;100326.54;217788;1259;140396;-70
2023/05/12 16:39:00;;;;;;;2.60;2.40;;;;;;;19.45;29.70;100336.33;218390;1256;139708;-67
2023/05/12 16:44:06;;;;;;;2.60;2.40;;;;;;;19.21;29.58;100335.84;218668;1256;139370;-68
2023/05/12 16:49:10;;;;;;;3.80;3.40;;;;;;;19.06;29.71;100339.84;218513;1256;141974;-69
2023/05/12 16:54:17;;;;;;;2.80;2.60;;;;;;;18.93;29.78;100338.11;220359;1256;139909;-71
2023/05/12 16:59:22;;;;;;;4.90;3.00;;;;;;;18.71;30.05;100342.48;218135;1259;139476;-68
2023/05/12 17:04:28;;;;;;;3.00;2.40;;;;;;;18.53;30.32;100352.64;218314;1259;141815;-69
2023/05/12 17:09:32;;;;;;;4.30;2.30;;;;;;;18.43;30.29;100356.21;217906;1256;140269;-69
2023/05/12 17:14:39;;;;;;;4.80;2.50;;;;;;;18.35;30.25;100355.63;218961;1255;139211;-69
2023/05/12 17:19:47;;;;;;;3.90;2.80;;;;;;;18.29;30.32;100356.51;218191;1257;139827;-67
2023/05/12 17:24:53;;;;;;;3.60;2.50;;;;;;;18.22;30.43;100361.30;220338;1256;140752;-68
2023/05/12 17:29:58;;;;;;;4.70;2.90;;;;;;;18.15;30.67;100368.80;220384;1255;140568;-69
2023/05/12 17:35:09;;;;;;;8.50;3.00;;;;;;;18.09;30.84;100371.59;220542;1257;140619;-77
2023/05/12 17:40:16;;;;;;;2.30;2.20;;;;;;;17.96;30.84;100376.02;220486;1256;139250;-74
2023/05/12 17:45:20;;;;;;;3.50;2.70;;;;;;;17.86;31.06;100374.16;220418;1256;139688;-71
2023/05/12 17:50:24;;;;;;;4.00;3.00;;;;;;;17.78;31.15;100377.48;220473;1255;140481;-68
2023/05/12 17:55:30;;;;;;;4.50;2.80;;;;;;;17.65;31.33;100383.59;218336;1256;140214;-70
2023/05/12 18:00:39;;;;;;;4.80;2.90;;;;;;;17.49;31.44;100386.86;217551;1259;140523;-67
2023/05/12 18:05:43;;;;;;;4.20;2.90;;;;;;;17.35;31.58;100388.71;218541;1259;140659;-68
2023/05/12 18:10:48;;;;;;;3.40;3.00;;;;;;;17.20;31.94;100395.31;217700;1257;139695;-70
2023/05/12 18:15:53;;;;;;;3.70;2.70;;;;;;;16.98;32.11;100399.40;219468;1255;139078;-68
2023/05/12 18:20:58;;;;;;;2.80;2.30;;;;;;;16.82;32.62;100399.79;217878;1257;140264;-75
2023/05/12 18:26:01;;;;;;;5.80;3.40;;;;;;;16.63;33.32;100405.40;217812;1256;139167;-68
2023/05/12 18:31:06;;;;;;;6.60;3.10;;;;;;;16.40;33.81;100410.22;218549;1256;139901;-71
2023/05/12 18:36:19;;;;;;;6.60;3.10;;;;;;;16.21;34.10;100413.91;217725;1256;139691;-71
2023/05/12 18:41:23;;;;;;;8.10;2.70;;;;;;;15.97;34.63;100421.75;217967;1257;139382;-69
2023/05/12 18:46:27;;;;;;;9.20;3.50;;;;;;;15.73;35.04;100428.11;218167;1257;140269;-69
2023/05/12 18:51:32;;;;;;;21.80;4.50;;;;;;;15.57;35.59;100436.56;217455;1257;139766;-72
2023/05/12 18:56:37;;;;;;;10.70;3.80;;;;;;;15.38;36.18;100437.48;218222;1256;140494;-68
2023/05/12 19:01:41;;;;;;;7.30;4.00;;;;;;;15.18;36.66;100436.42;218348;1256;139358;-68
2023/05/12 19:06:48;;;;;;;15.80;5.50;;;;;;;15.00;37.35;100437.51;217920;1256;139432;-72
2023/05/12 19:11:53;;;;;;;4.00;3.50;;;;;;;14.83;37.75;100442.13;218425;1259;140025;-73
2023/05/12 19:16:57;;;;;;;6.90;4.30;;;;;;;14.65;38.06;100442.45;217753;1257;139429;-71
2023/05/12 19:22:03;;;;;;;8.50;4.80;;;;;;;14.47;38.85;100440.15;218812;1255;140168;-69
2023/05/12 19:27:10;;;;;;;6.20;5.00;;;;;;;14.28;39.67;100446.69;218237;1256;139325;-67
2023/05/12 19:32:12;;;;;;;5.40;4.90;;;;;;;14.08;40.11;100445.90;220555;1256;139642;-69
2023/05/12 19:37:18;;;;;;;5.10;4.60;;;;;;;13.88;40.45;100442.67;218109;1258;140833;-68
2023/05/12 19:42:22;;;;;;;8.70;4.60;;;;;;;13.70;40.66;100446.88;217904;1255;139733;-67
2023/05/12 19:47:25;;;;;;;7.60;5.60;;;;;;;13.53;41.12;100456.34;218667;1255;139158;-69
2023/05/12 19:52:30;;;;;;;9.20;5.00;;;;;;;13.37;41.62;100463.13;218850;1257;140574;-68
2023/05/12 19:57:36;;;;;;;10.90;5.00;;;;;;;13.20;41.97;100462.36;218594;1254;139126;-67
2023/05/12 20:02:40;;;;;;;8.90;5.60;;;;;;;13.03;42.25;100463.96;219795;1257;139667;-67
2023/05/12 20:07:43;;;;;;;8.20;4.10;;;;;;;12.88;43.07;100464.51;219631;1256;139427;-67
2023/05/12 20:12:46;;;;;;;7.40;5.30;;;;;;;12.71;43.19;100467.39;218199;1257;139608;-68
2023/05/12 20:17:49;;;;;;;4.30;3.60;;;;;;;12.55;43.36;100467.23;218684;1256;139906;-67
2023/05/12 20:22:52;;;;;;;6.80;3.70;;;;;;;12.38;44.16;100471.11;218510;1257;140410;-66
2023/05/12 20:27:55;;;;;;;11.70;4.00;;;;;;;12.24;44.08;100466.18;218196;1256;139975;-69
2023/05/12 20:32:58;;;;;;;10.50;4.30;;;;;;;12.08;45.02;100466.36;218791;1259;139297;-68
2023/05/12 20:38:01;;;;;;;5.50;4.80;;;;;;;11.91;45.27;100466.91;217766;1257;139549;-66
2023/05/12 20:43:06;;;;;;;8.40;3.50;;;;;;;11.75;45.64;100469.70;218591;1259;139280;-68
2023/05/12 20:48:09;;;;;;;9.00;4.50;;;;;;;11.60;46.07;100466.38;218824;1256;139394;-68
2023/05/12 20:53:13;;;;;;;12.60;6.10;;;;;;;11.44;46.50;100468.86;218621;1259;139377;-67
2023/05/12 20:58:16;;;;;;;12.30;6.60;;;;;;;11.31;46.77;100470.43;217599;1257;139161;-67
2023/05/12 21:03:18;;;;;;;11.20;6.10;;;;;;;11.17;47.07;100468.48;219771;1255;139692;-67
2023/05/12 21:08:22;;;;;;;11.50;6.10;;;;;;;11.04;47.32;100471.71;217958;1256;140624;-69
2023/05/12 21:13:25;;;;;;;11.40;6.60;;;;;;;10.99;48.10;100477.48;220378;1257;139576;-66
2023/05/12 21:18:28;;;;;;;10.10;5.90;;;;;;;10.86;48.44;100480.54;219049;1256;139534;-67
2023/05/12 21:23:35;;;;;;;12.30;5.80;;;;;;;10.63;48.47;100485.16;218658;1256;139328;-68
2023/05/12 21:28:38;;;;;;;7.50;5.40;;;;;;;10.34;49.48;100488.64;220578;1256;139426;-67
2023/05/12 21:33:47;;;;;;;9.40;6.40;;;;;;;10.21;50.22;100492.80;220561;1256;140356;-66
2023/05/12 21:38:50;;;;;;;12.90;7.70;;;;;;;10.11;50.73;100493.02;217866;1256;139158;-69
2023/05/12 21:43:54;;;;;;;15.50;6.30;;;;;;;9.97;50.71;100495.14;219836;1256;139256;-66
2023/05/12 21:48:58;;;;;;;11.10;5.80;;;;;;;9.73;51.49;100504.11;218563;1256;139889;-68
2023/05/12 21:54:02;;;;;;;16.10;6.50;;;;;;;9.57;52.28;100504.73;218184;1254;140236;-68
2023/05/12 21:59:05;;;;;;;14.80;7.60;;;;;;;9.45;52.72;100504.08;219817;1257;138987;-67
2023/05/12 22:04:11;;;;;;;15.10;6.80;;;;;;;9.33;53.16;100510.21;217871;1257;139465;-67
2023/05/12 22:09:20;;;;;;;16.10;7.50;;;;;;;9.16;53.50;100507.65;217913;1259;140097;-70
2023/05/12 22:14:23;;;;;;;8.10;5.80;;;;;;;8.93;53.84;100508.48;218254;1259;139141;-66
2023/05/12 22:19:27;;;;;;;7.30;5.80;;;;;;;8.68;54.41;100507.82;217778;1255;139003;-67
2023/05/12 22:24:30;;;;;;;12.30;5.40;;;;;;;8.51;54.99;100512.64;218741;1254;139822;-67
2023/05/12 22:29:36;;;;;;;6.40;5.70;;;;;;;8.36;55.09;100510.11;217967;1258;231191;-66
2023/05/12 22:34:40;;;;;;;9.00;6.00;;;;;;;8.23;55.46;100513.15;217775;1256;138985;-66
2023/05/12 22:39:44;;;;;;;7.90;5.60;;;;;;;8.04;56.35;100514.11;218843;1258;139767;-68
2023/05/12 22:44:47;;;;;;;10.80;5.70;;;;;;;7.90;56.56;100515.01;219176;1257;138871;-66
2023/05/12 22:49:50;;;;;;;15.50;6.50;;;;;;;7.76;57.35;100510.33;218308;1257;139941;-68
2023/05/12 22:54:54;;;;;;;7.30;6.60;;;;;;;7.73;57.32;100509.00;219446;1256;140182;-69
2023/05/12 22:59:58;;;;;;;9.30;6.70;;;;;;;7.69;57.82;100507.96;218451;1257;140139;-65
2023/05/12 23:05:02;;;;;;;9.00;7.50;;;;;;;7.64;58.09;100509.09;218359;1259;139602;-66